createdAt,value
2024-05-09T00:00:39.558Z,54.38
2024-05-09T00:03:43.172Z,54.03
2024-05-09T00:06:45.744Z,54.13
2024-05-09T00:09:49.191Z,54.31
2024-05-09T00:12:51.533Z,54.05
2024-05-09T00:15:53.884Z,54.11
2024-05-09T00:18:56.340Z,53.80
2024-05-09T00:21:58.777Z,53.94
2024-05-09T00:25:01.157Z,54.03
2024-05-09T00:28:03.845Z,53.30
2024-05-09T00:31:06.191Z,52.77
2024-05-09T00:34:08.763Z,51.62
2024-05-09T00:37:11.282Z,51.22
2024-05-09T00:40:18.771Z,50.92
2024-05-09T00:43:29.381Z,50.55
2024-05-09T00:46:31.766Z,50.15
2024-05-09T00:49:34.777Z,49.65
2024-05-09T00:52:37.678Z,49.46
2024-05-09T00:55:40.329Z,48.72
2024-05-09T00:58:43.208Z,47.85
2024-05-09T01:01:46.414Z,47.39
2024-05-09T01:04:50.270Z,46.95
2024-05-09T01:07:52.737Z,45.79
2024-05-09T01:10:55.340Z,44.92
2024-05-09T01:13:57.782Z,44.37
2024-05-09T01:17:00.184Z,44.35
2024-05-09T01:20:04.203Z,44.14
2024-05-09T01:23:10.114Z,43.60
2024-05-09T01:26:12.746Z,43.34
2024-05-09T01:29:15.421Z,43.15
2024-05-09T01:32:17.881Z,42.51
2024-05-09T01:35:23.873Z,42.60
2024-05-09T01:38:26.487Z,42.22
2024-05-09T01:41:28.920Z,42.25
2024-05-09T01:44:31.325Z,41.80
2024-05-09T01:47:33.837Z,41.77
2024-05-09T01:50:40.249Z,41.21
2024-05-09T01:53:44.815Z,40.93
2024-05-09T01:56:47.199Z,40.78
2024-05-09T01:59:49.574Z,40.06
2024-05-09T02:02:52.146Z,39.71
2024-05-09T02:05:54.644Z,39.20
2024-05-09T02:08:57.032Z,39.26
2024-05-09T02:11:59.493Z,39.25
2024-05-09T02:15:01.964Z,39.28
2024-05-09T02:18:04.897Z,38.21
2024-05-09T02:21:09.133Z,39.48
2024-05-09T02:24:11.563Z,39.23
2024-05-09T02:27:13.948Z,38.97
2024-05-09T02:30:22.886Z,38.70
2024-05-09T02:33:33.263Z,38.74
2024-05-09T02:36:35.863Z,38.83
2024-05-09T02:39:38.293Z,38.12
2024-05-09T02:42:40.685Z,38.17
2024-05-09T02:45:43.085Z,37.25
2024-05-09T02:48:45.646Z,37.38
2024-05-09T02:51:48.205Z,37.51
2024-05-09T02:54:50.585Z,37.24
2024-05-09T02:57:52.973Z,37.55
2024-05-09T03:00:55.423Z,37.68
2024-05-09T03:03:58.004Z,37.42
2024-05-09T03:07:00.585Z,37.64
2024-05-09T03:10:03.484Z,37.65
2024-05-09T03:13:15.493Z,38.94
2024-05-09T03:16:18.679Z,38.87
2024-05-09T03:19:21.160Z,38.54
2024-05-09T03:22:23.746Z,38.51
2024-05-09T03:25:26.190Z,38.90
2024-05-09T03:28:28.570Z,38.96
2024-05-09T03:31:30.954Z,39.26
2024-05-09T03:34:33.402Z,38.48
2024-05-09T03:37:35.782Z,39.18
2024-05-09T03:40:47.058Z,38.25
2024-05-09T03:43:49.586Z,38.72
2024-05-09T03:46:52.106Z,38.08
2024-05-09T03:49:54.457Z,38.22
2024-05-09T03:52:56.951Z,38.04
2024-05-09T03:55:59.567Z,38.19
2024-05-09T03:59:02.165Z,38.44
2024-05-09T04:02:06.513Z,38.25
2024-05-09T04:05:09.350Z,38.93
2024-05-09T04:08:14.875Z,38.15
2024-05-09T04:11:17.703Z,38.63
2024-05-09T04:14:20.437Z,38.70
2024-05-09T04:17:22.910Z,38.47
2024-05-09T04:20:35.876Z,38.22
2024-05-09T04:23:41.810Z,38.58
2024-05-09T04:26:44.410Z,38.10
2024-05-09T04:29:46.750Z,38.33
2024-05-09T04:32:50.500Z,38.38
2024-05-09T04:35:53.043Z,38.27
2024-05-09T04:38:58.487Z,37.72
2024-05-09T04:42:00.861Z,37.60
2024-05-09T04:45:03.369Z,37.04
2024-05-09T04:48:06.490Z,36.52
2024-05-09T04:51:09.021Z,36.62
2024-05-09T04:54:22.177Z,36.37
2024-05-09T04:57:32.386Z,36.29
2024-05-09T05:00:37.342Z,36.58
2024-05-09T05:03:41.636Z,35.94
2024-05-09T05:06:44.102Z,36.39
2024-05-09T05:09:46.567Z,35.77
2024-05-09T05:13:07.809Z,36.19
2024-05-09T05:16:10.183Z,36.28
2024-05-09T05:19:15.115Z,35.89
2024-05-09T05:25:48.505Z,35.90
2024-05-09T05:28:52.263Z,35.30
2024-05-09T05:31:55.627Z,35.51
2024-05-09T05:34:58.486Z,35.63
2024-05-09T05:38:01.216Z,35.34
2024-05-09T05:41:03.946Z,35.60
2024-05-09T05:44:06.440Z,34.35
2024-05-09T05:47:09.017Z,34.69
2024-05-09T05:50:20.784Z,34.47
2024-05-09T05:53:30.030Z,34.07
2024-05-09T05:56:32.557Z,33.78
2024-05-09T05:59:35.084Z,33.58
2024-05-09T06:02:37.654Z,33.66
2024-05-09T06:05:40.869Z,33.72
2024-05-09T06:08:43.764Z,33.81
2024-05-09T06:11:46.687Z,33.35
2024-05-09T06:14:49.413Z,33.40
2024-05-09T06:17:51.903Z,33.20
2024-05-09T06:20:54.534Z,33.62
2024-05-09T06:23:57.251Z,33.96
2024-05-09T06:27:01.268Z,32.94
2024-05-09T06:30:03.953Z,33.19
2024-05-09T06:33:09.390Z,33.21
2024-05-09T06:36:13.292Z,33.38
2024-05-09T06:39:15.705Z,32.93
2024-05-09T06:42:18.061Z,32.96
2024-05-09T06:45:20.433Z,32.86
2024-05-09T06:48:23.360Z,33.02
2024-05-09T06:51:25.917Z,33.53
2024-05-09T06:54:28.402Z,33.25
2024-05-09T06:57:31.033Z,32.68
2024-05-09T07:00:38.977Z,32.72
2024-05-09T07:03:43.464Z,32.62
2024-05-09T07:06:45.988Z,32.71
2024-05-09T07:09:48.559Z,32.89
2024-05-09T07:12:55.449Z,32.63
2024-05-09T07:15:57.870Z,32.73
2024-05-09T07:19:00.308Z,32.59
2024-05-09T07:22:02.923Z,32.26
2024-05-09T07:25:05.446Z,32.35
2024-05-09T07:28:18.524Z,31.77
2024-05-09T07:31:21.508Z,32.20
2024-05-09T07:34:25.558Z,31.99
2024-05-09T07:37:28.111Z,31.42
2024-05-09T07:40:35.888Z,31.26
2024-05-09T07:43:39.365Z,30.71
2024-05-09T07:51:32.634Z,29.51
2024-05-09T07:53:37.118Z,29.21
2024-05-09T07:56:35.180Z,29.91
2024-05-09T07:59:41.806Z,29.45
2024-05-09T08:02:44.313Z,29.30
2024-05-09T08:05:46.820Z,29.90
2024-05-09T08:08:49.304Z,28.84
2024-05-09T08:11:52.890Z,28.49
2024-05-09T08:14:56.482Z,28.65
2024-05-09T08:18:00.198Z,29.07
2024-05-09T08:21:02.916Z,28.95
2024-05-09T08:24:05.994Z,28.99
2024-05-09T08:27:08.793Z,28.95
2024-05-09T08:30:18.972Z,29.12
2024-05-09T08:33:27.781Z,28.97
2024-05-09T08:36:30.353Z,28.20
2024-05-09T08:39:32.915Z,28.11
2024-05-09T08:42:36.392Z,27.74
2024-05-09T08:45:43.139Z,29.10
2024-05-09T08:48:48.437Z,28.11
2024-05-09T08:51:51.036Z,28.42
2024-05-09T08:54:54.880Z,27.92
2024-05-09T08:57:57.874Z,27.91
2024-05-09T09:01:00.820Z,27.98
2024-05-09T09:04:04.746Z,28.00
2024-05-09T09:07:07.328Z,31.47
2024-05-09T09:10:12.978Z,32.69
2024-05-09T09:13:17.710Z,32.16
2024-05-09T09:16:20.731Z,32.83
2024-05-09T09:19:23.778Z,32.68
2024-05-09T09:22:26.482Z,33.00
2024-05-09T09:25:28.840Z,32.66
2024-05-09T09:28:31.268Z,32.94
2024-05-09T09:31:33.812Z,28.98
2024-05-09T09:34:36.666Z,28.73
2024-05-09T09:37:39.011Z,28.66
2024-05-09T09:40:46.932Z,30.16
2024-05-09T09:43:53.296Z,28.24
2024-05-09T09:47:02.732Z,28.70
2024-05-09T09:50:12.038Z,28.69
2024-05-09T09:53:17.219Z,28.53
2024-05-09T09:56:20.340Z,28.89
2024-05-09T09:59:23.222Z,28.15
2024-05-09T10:02:25.769Z,28.83
2024-05-09T10:05:31.960Z,28.17
2024-05-09T10:08:35.266Z,27.64
2024-05-09T10:11:52.233Z,28.00
2024-05-09T10:14:57.898Z,28.22
2024-05-09T10:18:07.335Z,28.15
2024-05-09T10:21:23.330Z,28.25
2024-05-09T10:24:26.091Z,27.94
2024-05-09T10:27:29.472Z,28.06
2024-05-09T10:30:36.107Z,28.21
2024-05-09T10:33:46.632Z,28.42
2024-05-09T10:36:53.726Z,27.74
2024-05-09T10:39:57.767Z,27.93
2024-05-09T10:43:03.497Z,28.13
2024-05-09T10:46:09.256Z,27.16
2024-05-09T10:49:14.990Z,27.79
2024-05-09T10:52:21.296Z,27.98
2024-05-09T10:55:23.793Z,28.20
2024-05-09T10:58:26.974Z,27.14
2024-05-09T11:01:29.446Z,26.50
2024-05-09T11:04:36.082Z,26.77
2024-05-09T11:07:38.487Z,27.45
2024-05-09T11:10:41.027Z,28.29
2024-05-09T11:13:43.503Z,28.06
2024-05-09T11:16:46.180Z,29.25
2024-05-09T11:19:50.581Z,29.79
2024-05-09T11:22:53.013Z,29.19
2024-05-09T11:25:56.513Z,28.54
2024-05-09T11:28:58.888Z,28.03
2024-05-09T11:32:01.414Z,29.63
2024-05-09T11:35:04.114Z,29.33
2024-05-09T11:38:06.569Z,29.95
2024-05-09T11:41:08.974Z,30.68
2024-05-09T11:44:11.531Z,30.32
2024-05-09T11:47:14.366Z,29.17
2024-05-09T11:50:26.749Z,28.94
2024-05-09T11:53:32.604Z,29.96
2024-05-09T11:56:35.256Z,29.18
2024-05-09T11:59:37.604Z,28.32
2024-05-09T12:02:39.997Z,29.49
2024-05-09T12:05:42.664Z,29.07
2024-05-09T12:08:45.200Z,28.36
2024-05-09T12:11:47.625Z,29.10
2024-05-09T12:14:51.100Z,28.66
2024-05-09T12:17:53.732Z,28.44
2024-05-09T12:20:56.244Z,28.95
2024-05-09T12:23:58.658Z,28.11
2024-05-09T12:27:01.095Z,28.09
2024-05-09T12:30:04.623Z,28.63
2024-05-09T12:33:11.632Z,28.05
2024-05-09T12:36:14.817Z,27.49
2024-05-09T12:39:17.221Z,28.22
2024-05-09T12:42:27.048Z,28.65
2024-05-09T12:45:31.015Z,28.10
2024-05-09T12:48:34.033Z,28.39
2024-05-09T12:51:36.519Z,28.19
2024-05-09T12:54:38.918Z,28.97
2024-05-09T12:57:41.642Z,27.83
2024-05-09T13:00:44.815Z,28.13
2024-05-09T13:03:47.512Z,28.75
2024-05-09T13:06:49.978Z,29.54
2024-05-09T13:09:52.450Z,29.51
2024-05-09T13:12:54.895Z,26.70
2024-05-09T13:15:57.368Z,28.41
2024-05-09T13:18:59.844Z,28.03
2024-05-09T13:22:02.236Z,28.26
2024-05-09T13:25:05.023Z,28.46
2024-05-09T13:28:08.095Z,27.86
2024-05-09T13:31:10.638Z,27.33
2024-05-09T13:34:13.095Z,26.40
2024-05-09T13:37:15.542Z,24.98
2024-05-09T13:40:27.121Z,22.30
2024-05-09T13:43:35.342Z,20.60
2024-05-09T13:46:37.759Z,20.31
2024-05-09T13:49:40.342Z,18.38
2024-05-09T13:52:42.726Z,18.01
2024-05-09T13:55:48.585Z,16.04
2024-05-09T13:58:52.012Z,15.50
2024-05-09T14:01:54.587Z,15.01
2024-05-09T14:04:57.197Z,14.84
2024-05-09T14:08:00.862Z,16.18
2024-05-09T14:11:03.466Z,15.32
2024-05-09T14:14:05.894Z,15.64
2024-05-09T14:17:08.373Z,15.64
2024-05-09T14:20:14.089Z,16.97
2024-05-09T14:23:18.893Z,18.12
2024-05-09T14:26:21.273Z,18.93
2024-05-09T14:29:23.628Z,19.40
2024-05-09T14:32:26.048Z,21.10
2024-05-09T14:35:28.449Z,22.13
2024-05-09T14:38:30.853Z,20.23
2024-05-09T14:41:33.183Z,21.06
2024-05-09T14:44:35.583Z,21.28
2024-05-09T14:47:38.162Z,20.95
2024-05-09T14:50:41.388Z,20.82
2024-05-09T14:53:43.974Z,21.02
2024-05-09T14:56:46.357Z,20.98
2024-05-09T14:59:48.706Z,21.02
2024-05-09T15:02:51.160Z,20.01
2024-05-09T15:05:53.795Z,22.10
2024-05-09T15:08:57.318Z,21.33
2024-05-09T15:11:59.683Z,22.55
2024-05-09T15:15:02.053Z,22.41
2024-05-09T15:18:05.552Z,21.47
2024-05-09T15:21:08.399Z,22.56
2024-05-09T15:24:10.765Z,21.84
2024-05-09T15:27:13.188Z,21.78
2024-05-09T15:30:18.228Z,21.40
2024-05-09T15:33:23.191Z,20.92
2024-05-09T15:36:25.690Z,22.10
2024-05-09T15:39:30.384Z,21.85
2024-05-09T15:42:32.804Z,22.05
2024-05-09T15:45:35.469Z,22.31
2024-05-09T15:48:40.359Z,21.95
2024-05-09T15:51:43.562Z,21.73
2024-05-09T15:54:46.000Z,21.77
2024-05-09T15:57:48.471Z,20.93
2024-05-09T16:00:52.395Z,21.07
2024-05-09T16:03:54.985Z,21.83
2024-05-09T16:06:57.454Z,21.84
2024-05-09T16:09:59.833Z,22.56
2024-05-09T16:13:03.081Z,21.39
2024-05-09T16:16:06.393Z,22.58
2024-05-09T16:19:09.876Z,22.80
2024-05-09T16:22:12.538Z,23.09
2024-05-09T16:25:15.054Z,21.63
2024-05-09T16:28:19.161Z,22.53
2024-05-09T16:31:21.660Z,22.60
2024-05-09T16:34:24.215Z,22.28
2024-05-09T16:37:29.505Z,22.33
2024-05-09T16:40:38.458Z,23.04
2024-05-09T16:43:43.227Z,23.26
2024-05-09T16:46:45.626Z,23.44
2024-05-09T16:49:47.988Z,22.24
2024-05-09T16:52:50.314Z,22.16
2024-05-09T16:55:52.730Z,23.01
2024-05-09T16:58:55.184Z,22.27
2024-05-09T17:01:57.589Z,22.64
2024-05-09T17:05:00.163Z,23.11
2024-05-09T17:08:02.706Z,23.15
2024-05-09T17:11:05.416Z,23.13
2024-05-09T17:14:07.950Z,22.84
2024-05-09T17:17:10.376Z,23.13
2024-05-09T17:20:22.986Z,22.33
2024-05-09T17:23:34.354Z,22.10
2024-05-09T17:26:37.606Z,22.47
2024-05-09T17:29:39.990Z,22.11
2024-05-09T17:32:42.451Z,22.08
2024-05-09T17:35:46.160Z,22.31
2024-05-09T17:38:48.642Z,22.64
2024-05-09T17:41:51.021Z,22.17
2024-05-09T17:44:53.391Z,22.54
2024-05-09T17:47:55.970Z,22.96
2024-05-09T17:51:01.411Z,23.06
2024-05-09T17:54:03.775Z,23.53
2024-05-09T17:57:06.219Z,24.10
2024-05-09T18:00:11.384Z,24.29
2024-05-09T18:03:16.917Z,24.73
2024-05-09T18:06:19.355Z,24.73
2024-05-09T18:09:21.765Z,24.97
2024-05-09T18:12:24.117Z,25.38
2024-05-09T18:15:26.551Z,25.86
2024-05-09T18:18:29.149Z,26.06
2024-05-09T18:21:31.891Z,26.49
2024-05-09T18:24:34.485Z,26.72
2024-05-09T18:27:36.985Z,26.56
2024-05-09T18:30:40.641Z,26.91
2024-05-09T18:33:43.199Z,27.35
2024-05-09T18:36:46.664Z,27.82
2024-05-09T18:39:49.046Z,27.85
2024-05-09T18:42:51.526Z,28.38
2024-05-09T18:45:53.965Z,28.26
2024-05-09T18:48:56.604Z,28.38
2024-05-09T18:51:59.076Z,28.74
2024-05-09T18:55:01.508Z,28.99
2024-05-09T18:58:04.861Z,29.24
2024-05-09T19:01:07.502Z,29.32
2024-05-09T19:04:10.087Z,29.94
2024-05-09T19:07:13.500Z,29.91
2024-05-09T19:10:22.510Z,30.32
2024-05-09T19:13:28.533Z,30.65
2024-05-09T19:16:31.391Z,30.83
2024-05-09T19:19:34.327Z,30.94
2024-05-09T19:22:36.804Z,31.31
2024-05-09T19:25:39.390Z,31.08
2024-05-09T19:28:41.789Z,31.19
2024-05-09T19:34:46.552Z,31.60
2024-05-09T19:37:51.523Z,31.81
2024-05-09T19:40:54.122Z,32.11
2024-05-09T19:43:56.706Z,32.50
2024-05-09T19:46:59.075Z,32.25
2024-05-09T19:50:01.664Z,32.52
2024-05-09T19:53:04.361Z,32.66
2024-05-09T19:56:07.131Z,32.72
2024-05-09T19:59:09.548Z,32.63
2024-05-09T20:02:12.107Z,32.66
2024-05-09T20:05:17.485Z,32.72
2024-05-09T20:08:19.975Z,33.07
2024-05-09T20:11:22.612Z,33.60
2024-05-09T20:14:25.093Z,33.48
2024-05-09T20:17:27.439Z,33.82
2024-05-09T20:20:37.354Z,34.13
2024-05-09T20:23:43.652Z,34.23
2024-05-09T20:26:46.043Z,34.23
2024-05-09T20:29:48.431Z,34.51
2024-05-09T20:32:50.939Z,34.42
2024-05-09T20:35:55.533Z,34.50
2024-05-09T20:38:57.915Z,34.94
2024-05-09T20:42:02.074Z,35.31
2024-05-09T20:45:04.828Z,35.00
2024-05-09T20:48:08.464Z,35.30
2024-05-09T20:51:10.988Z,35.34
2024-05-09T20:54:13.387Z,35.68
2024-05-09T20:57:15.704Z,35.50
2024-05-09T21:00:19.410Z,35.67
2024-05-09T21:03:28.387Z,35.64
2024-05-09T21:06:30.835Z,36.13
2024-05-09T21:09:33.289Z,36.02
2024-05-09T21:12:35.764Z,35.15
2024-05-09T21:15:38.413Z,35.58
2024-05-09T21:18:40.940Z,36.05
2024-05-09T21:21:43.383Z,35.27
2024-05-09T21:24:45.809Z,36.30
2024-05-09T21:27:48.222Z,36.46
2024-05-09T21:30:50.721Z,35.13
2024-05-09T21:33:53.314Z,35.74
2024-05-09T21:36:55.801Z,35.48
2024-05-09T21:39:58.303Z,35.81
2024-05-09T21:43:01.307Z,36.19
2024-05-09T21:46:04.541Z,36.16
2024-05-09T21:49:07.053Z,35.60
2024-05-09T21:52:09.453Z,36.02
2024-05-09T21:55:12.010Z,36.68
2024-05-09T21:58:14.856Z,36.74
2024-05-09T22:01:17.506Z,37.18
2024-05-09T22:04:20.018Z,37.24
2024-05-09T22:07:23.625Z,37.44
2024-05-09T22:10:31.187Z,37.52
2024-05-09T22:13:36.937Z,37.79
2024-05-09T22:16:42.351Z,37.55
2024-05-09T22:19:49.291Z,37.91
2024-05-09T22:22:54.380Z,38.23
2024-05-09T22:25:56.740Z,38.53
2024-05-09T22:28:59.071Z,38.77
2024-05-09T22:32:01.435Z,38.89
2024-05-09T22:35:04.611Z,38.77
2024-05-09T22:38:07.007Z,39.17
2024-05-09T22:41:09.533Z,39.35
2024-05-09T22:44:11.879Z,39.20
2024-05-09T22:47:14.231Z,39.37
2024-05-09T22:50:26.198Z,39.73
2024-05-09T22:53:29.545Z,39.67
2024-05-09T22:56:31.865Z,39.88
2024-05-09T22:59:34.246Z,40.03
2024-05-09T23:02:36.564Z,40.27
2024-05-09T23:05:38.934Z,40.28
2024-05-09T23:08:41.272Z,40.31
2024-05-09T23:11:45.204Z,40.40
2024-05-09T23:14:47.725Z,40.55
2024-05-09T23:17:50.149Z,40.53
2024-05-09T23:20:52.681Z,40.22
2024-05-09T23:23:55.104Z,40.38
2024-05-09T23:26:58.071Z,39.95
2024-05-09T23:30:00.374Z,40.53
2024-05-09T23:33:03.408Z,40.87
2024-05-09T23:36:06.027Z,40.71
2024-05-09T23:39:08.376Z,40.26
2024-05-09T23:42:10.893Z,40.86
2024-05-09T23:45:13.255Z,40.99
2024-05-09T23:48:15.795Z,41.02
2024-05-09T23:51:18.223Z,41.19
2024-05-09T23:54:20.488Z,40.94
2024-05-09T23:57:22.860Z,41.09
